Terminal Aerodrome Forecast
Issued by NWS Charleston, WV

Current Version | Previous Version | Graphics & Text | Print | Product List | Glossary On
Versions: 1 2 3 4 5 6 7 8 9 10 11 12 13 14 15 16 17 18 19 20 21 22
000
FTUS41 KRLX 240100 AAA
TAFBKW
TAF AMD
KBKW 240126Z 2401/2424 14005KT 4SM -RA BR SCT009 OVC025
     FM240300 12006KT 2SM -RAPL BR BKN008 OVC012
     FM240800 10004KT 1SM -SN BR OVC003
     FM241100 34008KT 2SM -SN BR OVC003
     FM241400 31010G15KT 3SM -SN BR OVC008
     FM241600 30011G17KT 6SM -RASN BR BKN010=

USA.gov is the U.S. government's official web portal to all federal, state and local government web resources and services.